Tiempo atmosférico en la estación meteorológica de Bustillo del Páramo, León (850 m.)



Fecha
DESCASC
Temp. máxima en grados centígrados (hora)
DESCASC
Temp. mínima en grados centígrados (hora)
DESCASC
Temp. media en grados centígrados
DESCASC
Racha de viento máxima en m/sg (hora)
DESCASC
Velocidad máxima media en intervalos de 10 minutos(hora)
DESCASC
Precipitaciones diarias en mm
DESCASC
Precipitaciones de 00:00 a 06:00 en mm
DESCASC
Precipitaciones de 06:00 a 12:00 en mm
DESCASC
Precipitaciones de 12:00 a 18:00 en mm
DESCASC
Precipitaciones de 18:00 a 24:00 en mm
DESCASC
24-09-2020 18.1 (15:30) 9.1 (07:40) 13.6 14.72 (16:30) 10.56 (14:30) 0 0 0 0 0
23-09-2020 20.1 (13:50) 12.2 (00:00) 16.2 11.11 (17:50) 7.78 (17:50) 0 0 0 0 0
22-09-2020 20.7 (16:10) 11.6 (00:00) 16.2 5.56 (15:00) 3.89 (15:00) 0 0 0 0 0
21-09-2020 19.9 (14:20) 12.4 (00:00) 16.1 6.67 (20:20) 4.17 (16:00) 0.6 0 0 0.2 0.4
20-09-2020 18.4 (18:50) 11.2 (00:00) 14.8 5.28 (17:00) 3.06 (17:00) 6.8 0 3.8 2 1
19-09-2020 20.2 (15:10) 11.3 (00:00) 15.8 7.78 (15:10) 5.56 (16:20) 0 0 0 0 0
18-09-2020 21.7 (16:00) 13.8 (00:00) 17.8 10.83 (01:10) 5.83 (11:20) 5.4 5 0 0 0.4
17-09-2020 24.2 (18:00) 15.5 (00:00) 19.9 9.17 (20:40) 5.83 (00:50) 9.2 1.2 0.2 0 7.8
16-09-2020 26.1 (17:30) 8.9 (00:00) 17.5 5.83 (16:50) 3.61 (15:20) 0 0 0 0 0
15-09-2020 25.6 (17:20) 12 (00:00) 18.8 9.17 (16:20) 3.89 (16:40) 0 0 0 0 0
14-09-2020 26.4 (17:10) 14.2 (00:00) 20.3 7.78 (17:30) 5.28 (17:30) 0 0 0 0 0
13-09-2020 30 (17:50) 9.7 (00:00) 19.8 6.67 (22:50) 3.89 (23:59) 0 0 0 0 0
12-09-2020 29 (17:00) 10.6 (00:00) 19.8 4.72 (15:00) 3.33 (06:40) 0 0 0 0 0
11-09-2020 27.9 (17:50) 9.8 (00:00) 18.8 4.44 (22:00) 2.78 (00:20) 0 0 0 0 0
10-09-2020 26.8 (17:30) 9.8 (00:00) 18.3 5 (07:00) 3.33 (23:10) 0 0 0 0 0
09-09-2020 26.9 (17:10) 7.4 (00:00) 17.1 5.28 (11:20) 3.33 (22:40) 0 0 0 0 0
08-09-2020 24.4 (18:40) 6 (00:00) 15.2 8.61 (12:30) 5 (11:50) 0 0 0 0 0
07-09-2020 22.9 (18:50) 7 (08:20) 14.9 6.11 (15:50) 4.17 (21:10) 0 0 0 0 0
06-09-2020 26.1 (17:50) 10.7 (00:00) 18.4 7.78 (20:10) 4.44 (20:10) 0 0 0 0 0
05-09-2020 29.4 (17:00) 12.1 (00:00) 20.8 8.61 (21:00) 5.83 (21:00) 0 0 0 0 0
04-09-2020 30 (17:10) 10.3 (00:00) 20.2 5.83 (17:30) 4.17 (18:00) 0 0 0 0 0
03-09-2020 27.9 (17:20) 8.6 (00:00) 18.3 5.56 (00:30) 3.06 (23:20) 0 0 0 0 0
02-09-2020 24.2 (18:00) 8.1 (00:00) 16.2 7.22 (11:30) 3.06 (11:40) 0 0 0 0 0
01-09-2020 -- (--) -- (--) -- -- (--) -- (--) -- 0 -- 0 0
31-08-2020 -- (--) -- (--) -- -- (--) -- (--) 0 0 0 0 0
30-08-2020 -- (--) -- (--) -- -- (--) -- (--) 0 0 0 0 0
29-08-2020 -- (--) -- (--) -- -- (--) -- (--) 0 0 0 0 0
28-08-2020 -- (--) -- (--) -- -- (--) -- (--) 0 0 0 0 0
27-08-2020 29.5 (16:00) 14.4 (00:00) 21.9 9.72 (23:10) 6.11 (19:30) 0 0 0 0 0
26-08-2020 30.4 (18:40) 11.8 (00:00) 21.1 5 (17:20) 3.89 (23:10) 0 0 0 0 0

Gráficas

Temp. máximas Temp. mínimas Temp. medias Precipitaciones Rachas de viento máximas Velocidades máximas media en intervalos de 10 minutos

Datos horarios

Fecha y hora oficial Temperatura (ºC) Velocidad del viento (km/h) Dirección del viento Racha (km/h) Dirección de racha Precipitación (mm) Presión (hPa) Tendencia (hPa) Humedad (%)
2020-09-24 23:00:00 11 18 Oeste 36 Sudoeste 0 -- -- 79
2020-09-24 22:00:00 11.4 14 Oeste 46 Oeste 0 -- -- 75
2020-09-24 21:00:00 12.5 29 Oeste 48 Oeste 0 -- -- 68
2020-09-24 20:00:00 13.1 27 Oeste 46 Oeste 0 -- -- 66
2020-09-24 19:00:00 14.8 26 Oeste 51 Oeste 0 -- -- 60
2020-09-24 18:00:00 15.5 31 Oeste 50 Oeste 0 -- -- 58
2020-09-24 17:00:00 16.3 33 Oeste 53 Oeste 0 -- -- 54
2020-09-24 16:00:00 17.9 30 Oeste 49 Sudoeste 0 -- -- 50
2020-09-24 15:00:00 16.9 34 Oeste 51 Oeste 0 -- -- 46
2020-09-24 14:00:00 16.8 34 Oeste 51 Oeste 0 -- -- 47
2020-09-24 13:00:00 15.5 32 Oeste 46 Oeste 0 -- -- 57
2020-09-24 12:00:00 14.5 25 Oeste 36 Oeste 0 -- -- 64
2020-09-24 11:00:00 13.2 9 Sudoeste 21 Oeste 0 -- -- 78
2020-09-24 10:00:00 11.4 2 Oeste 9 Sur 0 -- -- 91
2020-09-24 09:00:00 9.4 6 Sudoeste 9 Sudoeste 0 -- -- 93
2020-09-24 08:00:00 9.4 5 Oeste 9 Oeste 0 -- -- 93
2020-09-24 07:00:00 9.7 3 Oeste 14 Oeste 0 -- -- 91
2020-09-24 06:00:00 10.3 12 Oeste 20 Oeste 0 -- -- 89
2020-09-24 05:00:00 10.2 8 Noroeste 12 Noroeste 0 -- -- 90
2020-09-24 04:00:00 11 8 Oeste 14 Oeste 0 -- -- 88
2020-09-24 03:00:00 11.3 9 Oeste 15 Oeste 0 -- -- 90
2020-09-24 02:00:00 11.1 5 Sudoeste 14 Noroeste 0 -- -- 89
2020-09-24 01:00:00 12.6 9 Noroeste 16 Noroeste 0 -- -- 85
2020-09-24 00:00:00 13.3 11 Noroeste 22 Noroeste 0 -- -- 80
2020-09-23 23:00:00 14.3 13 Noroeste 22 Oeste 0 -- -- 74
2020-09-23 22:00:00 14.9 12 Oeste 27 Oeste 0 -- -- 74
2020-09-23 21:00:00 15.7 14 Oeste 26 Oeste 0 -- -- 72
2020-09-23 20:00:00 16.7 12 Oeste 21 Oeste 0 -- -- 70
2020-09-23 19:00:00 18.7 18 Oeste 35 Oeste 0 -- -- 58
2020-09-23 18:00:00 19.2 26 Oeste 40 Oeste 0 -- -- 55
2020-09-23 17:00:00 19.3 16 Oeste 29 Noroeste 0 -- -- 63
2020-09-23 16:00:00 18.9 8 Sudoeste 18 Oeste 0 -- -- 71
2020-09-23 15:00:00 18.2 7 Este 34 Sudoeste 0 -- -- 74
2020-09-23 14:00:00 20 22 Sur 32 Sudoeste 0 -- -- 67
2020-09-23 13:00:00 18.3 18 Sur 29 Sur 0 -- -- 72
2020-09-23 12:00:00 17.2 16 Sudoeste 24 Sudoeste 0 -- -- 77
2020-09-23 11:00:00 15.9 15 Sudoeste 22 Sudoeste 0 -- -- 82
2020-09-23 10:00:00 14.2 9 Sur 14 Sur 0 -- -- 92
2020-09-23 09:00:00 13.1 4 Sur 6 Sur 0 -- -- 95
2020-09-23 08:00:00 12.3 5 Sur 12 Sur 0 -- -- 94
2020-09-23 07:00:00 12.2 2 Este 6 Sudeste 0 -- -- 94
2020-09-23 06:00:00 12.3 3 Este 7 Este 0 -- -- 93
2020-09-23 05:00:00 12.5 4 Noroeste 8 Sudeste 0 -- -- 93
2020-09-23 04:00:00 12.6 4 Sudeste 8 Este 0 -- -- 92
2020-09-23 03:00:00 13.2 4 Este 5 Este 0 -- -- 90
2020-09-23 02:00:00 13.5 0 Calma 6 Sur 0 -- -- 88
2020-09-23 01:00:00 13.6 3 Oeste 8 Noroeste 0 -- -- 88
2020-09-23 00:00:00 13.6 5 Noroeste 10 Noroeste 0 -- -- 83
2020-09-22 23:00:00 14.4 9 Noroeste 13 Noroeste 0 -- -- 78
2020-09-22 22:00:00 15.4 6 Oeste 12 Oeste 0 -- -- 76
2020-09-22 21:00:00 15.7 10 Oeste 12 Noroeste 0 -- -- 75
2020-09-22 20:00:00 18.9 3 Noroeste 8 Sur 0 -- -- 66
2020-09-22 19:00:00 19.2 6 Sudeste 20 Sur 0 -- -- 60
2020-09-22 18:00:00 20.1 10 Sur 17 Sur 0 -- -- 56
2020-09-22 17:00:00 19.8 9 Sur 18 Sudoeste 0 -- -- 55
2020-09-22 16:00:00 20.1 7 Sudeste 19 Este 0 -- -- 53
2020-09-22 15:00:00 19.7 14 Sur 20 Sur 0 -- -- 53
2020-09-22 14:00:00 19.5 9 Sudeste 19 Sudeste 0 -- -- 56
2020-09-22 13:00:00 17.3 6 Sudeste 10 Sudeste 0 -- -- 69
2020-09-22 12:00:00 16.8 6 Sur 12 Sudoeste 0 -- -- 75
2020-09-22 11:00:00 16 3 Este 9 Este 0 -- -- 80
2020-09-22 10:00:00 13.9 4 Norte 6 Norte 0 -- -- 92
2020-09-22 09:00:00 13.2 3 Oeste 5 Oeste 0 -- -- 94
2020-09-22 08:00:00 13 0 Calma -- -- 0 -- -- 94
2020-09-22 07:00:00 12.6 0 Calma 5 Nordeste 0 -- -- 94
2020-09-22 06:00:00 12.3 3 Nordeste 7 Noroeste 0 -- -- 95
2020-09-22 05:00:00 11.6 6 Noroeste 8 Noroeste 0 -- -- 94
2020-09-22 04:00:00 12.7 4 Norte 8 Oeste 0 -- -- 93
2020-09-22 03:00:00 13.3 4 Norte 6 Norte 0 -- -- 93
2020-09-22 02:00:00 13.7 3 Oeste 6 Oeste 0 -- -- 92
2020-09-22 01:00:00 13.8 3 Norte 9 Norte 0 -- -- 92
2020-09-22 00:00:00 13.6 7 Norte 14 Norte 0 -- -- 89
2020-09-21 23:00:00 13.6 7 Norte 13 Norte 0.2 -- -- 90
2020-09-21 22:00:00 13.5 9 Noroeste 14 Noroeste 0 -- -- 89
2020-09-21 21:00:00 14 10 Noroeste 24 Noroeste 0.2 -- -- 86
2020-09-21 20:00:00 16.6 4 Este 9 Sudeste 0 -- -- 80
2020-09-21 19:00:00 17.7 4 Este 16 Nordeste 0 -- -- 76
2020-09-21 18:00:00 18.6 13 Este 21 Nordeste 0 -- -- 69
2020-09-21 17:00:00 18.8 9 Este 22 Este 0.2 -- -- 74
2020-09-21 16:00:00 19.2 15 Este 23 Este 0 -- -- 70
2020-09-21 15:00:00 19.3 5 Norte 14 Norte 0 -- -- 64
2020-09-21 14:00:00 19.4 3 Oeste 10 Oeste 0 -- -- 63
2020-09-21 13:00:00 17.8 3 Norte 13 Oeste 0 -- -- 73
2020-09-21 12:00:00 16.6 6 Noroeste 12 Noroeste 0 -- -- 81
2020-09-21 11:00:00 14.9 5 Noroeste 8 Noroeste 0 -- -- 91
2020-09-21 10:00:00 13.9 3 Oeste 5 Oeste 0 -- -- 95
2020-09-21 09:00:00 13.3 3 Norte 5 Norte 0 -- -- 95
2020-09-21 08:00:00 12.9 0 Calma 7 Noroeste 0 -- -- 95
2020-09-21 07:00:00 12.8 5 Noroeste 9 Norte 0 -- -- 95
2020-09-21 06:00:00 12.6 4 Noroeste 6 Norte 0 -- -- 95
2020-09-21 05:00:00 12.7 3 Norte 6 Noroeste 0 -- -- 94
2020-09-21 04:00:00 13.3 5 Oeste 8 Oeste 0 -- -- 94
2020-09-21 03:00:00 13.3 5 Noroeste 14 Noroeste 0 -- -- 93
2020-09-21 02:00:00 13.8 8 Noroeste 13 Oeste 0 -- -- 93
2020-09-21 01:00:00 14.3 6 Oeste 12 Oeste 0 -- -- 93
2020-09-21 00:00:00 14.5 5 Norte 12 Norte 0.4 -- -- 93
2020-09-20 23:00:00 14.7 2 Nordeste 11 Sudoeste 0 -- -- 91
2020-09-20 22:00:00 14.8 3 Sur 8 Sudeste 0.6 -- -- 89
2020-09-20 21:00:00 15.5 9 Nordeste 12 Nordeste 0 -- -- 86
2020-09-20 20:00:00 16.5 4 Nordeste 8 Nordeste 0 -- -- 82
2020-09-20 19:00:00 18.3 5 Nordeste 11 Nordeste 0 -- -- 72
2020-09-20 18:00:00 17.8 4 Norte 15 Noroeste 0 -- -- 72
2020-09-20 17:00:00 17.7 11 Noroeste 19 Oeste 0 -- -- 79
2020-09-20 16:00:00 16.3 8 Noroeste 13 Noroeste 0 -- -- 86
2020-09-20 15:00:00 15.3 5 Oeste 12 Noroeste 1 -- -- 92
2020-09-20 14:00:00 15 9 Noroeste 12 Noroeste 0.8 -- -- 91
2020-09-20 13:00:00 15.2 6 Sudoeste 12 Sudoeste 0.2 -- -- 87
2020-09-20 12:00:00 15.2 0 Calma 10 Nordeste 0 -- -- 88
2020-09-20 11:00:00 14.2 8 Nordeste 11 Este 0 -- -- 94
2020-09-20 10:00:00 13.6 4 Nordeste 11 Nordeste 0 -- -- 96
2020-09-20 09:00:00 13 6 Nordeste 10 Nordeste 3.2 -- -- 96
2020-09-20 08:00:00 13 5 Nordeste 13 Nordeste 0.6 -- -- 96
2020-09-20 07:00:00 12.8 9 Nordeste 13 Nordeste 0 -- -- 96
2020-09-20 06:00:00 12.5 5 Nordeste 10 Nordeste 0 -- -- 96
2020-09-20 05:00:00 12 7 Nordeste 9 Nordeste 0 -- -- 96
2020-09-20 04:00:00 12.2 4 Este 9 Nordeste 0 -- -- 95
2020-09-20 03:00:00 11.6 4 Nordeste 6 Nordeste 0 -- -- 95
2020-09-20 02:00:00 11.4 3 Nordeste 5 Nordeste 0 -- -- 93
2020-09-20 01:00:00 11.8 2 Sur 5 Sudoeste 0 -- -- 91
2020-09-20 00:00:00 12.6 3 Oeste 13 Sur 0 -- -- 88
2020-09-19 23:00:00 13.6 10 Sur 15 Sur 0 -- -- 87
2020-09-19 22:00:00 15.1 7 Sudoeste 10 Sur 0 -- -- 84
2020-09-19 21:00:00 16 4 Sudoeste 15 Sudoeste 0 -- -- 81
2020-09-19 20:00:00 16.9 9 Sudoeste 14 Sur 0 -- -- 78
2020-09-19 19:00:00 17.5 6 Sur 15 Este 0 -- -- 74
2020-09-19 18:00:00 16.9 12 Nordeste 24 Sur 0 -- -- 75
2020-09-19 17:00:00 18.5 15 Sudoeste 28 Sudoeste 0 -- -- 67
2020-09-19 16:00:00 18.2 18 Sur 28 Sur 0 -- -- 65
2020-09-19 15:00:00 19.6 14 Sudoeste 26 Sudoeste 0 -- -- 63
2020-09-19 14:00:00 19.1 13 Sudoeste 21 Sudoeste 0 -- -- 66
2020-09-19 13:00:00 18.1 12 Sudoeste 23 Sudoeste 0 -- -- 69
2020-09-19 12:00:00 16.1 10 Sudoeste 17 Oeste 0 -- -- 77
2020-09-19 11:00:00 14.7 8 Sudoeste 12 Sudoeste 0 -- -- 85
2020-09-19 10:00:00 13 4 Norte 9 Noroeste 0 -- -- 93
2020-09-19 09:00:00 12.1 5 Noroeste 8 Noroeste 0 -- -- 94
2020-09-19 08:00:00 11.7 4 Nordeste 7 Norte 0 -- -- 92
2020-09-19 07:00:00 12.4 3 Nordeste 8 Nordeste 0 -- -- 92
2020-09-19 06:00:00 12 6 Nordeste 13 Nordeste 0 -- -- 91
2020-09-19 05:00:00 12.7 6 Nordeste 13 Nordeste 0 -- -- 89
2020-09-19 04:00:00 12.5 10 Nordeste 13 Nordeste 0 -- -- 91
2020-09-19 03:00:00 12.9 10 Este 15 Este 0 -- -- 89
2020-09-19 02:00:00 13.5 9 Este 16 Este 0 -- -- 91
2020-09-19 01:00:00 13.8 8 Este 15 Nordeste 0 -- -- 92
2020-09-19 00:00:00 14 10 Este 14 Este 0 -- -- 93
2020-09-18 23:00:00 14.1 0 Calma 7 Nordeste 0.2 -- -- 92
2020-09-18 22:00:00 14.2 3 Este 17 Sudoeste 0.2 -- -- 89
2020-09-18 21:00:00 14.3 14 Sudoeste 31 Sudoeste 0 -- -- 86
2020-09-18 20:00:00 16.6 15 Oeste 28 Sudoeste 0 -- -- 72
2020-09-18 19:00:00 19.2 13 Este 23 Este 0 -- -- 59
2020-09-18 18:00:00 20.5 6 Este 17 Sudeste 0 -- -- 54
2020-09-18 17:00:00 20.5 13 Sudeste 24 Sudeste 0 -- -- 54
2020-09-18 16:00:00 21.7 12 Sur 22 Sudoeste 0 -- -- 50
2020-09-18 15:00:00 19.6 12 Sudeste 24 Sudeste 0 -- -- 61
2020-09-18 14:00:00 19.2 9 Sur 20 Sur 0 -- -- 65
2020-09-18 13:00:00 15.7 12 Sur 25 Sudeste 0 -- -- 81
2020-09-18 12:00:00 15.4 15 Sudeste 30 Sudeste 0 -- -- 86
2020-09-18 11:00:00 15.9 18 Sudeste 29 Sudeste 0 -- -- 88
2020-09-18 10:00:00 14.7 13 Sudeste 19 Sudeste 0 -- -- 93
2020-09-18 09:00:00 14.1 10 Este 18 Este 0 -- -- 94
2020-09-18 08:00:00 14.4 10 Este 16 Este 0 -- -- 94
2020-09-18 07:00:00 14 3 Este 8 Nordeste 0 -- -- 94
2020-09-18 06:00:00 13.9 2 Sudoeste 15 Este 0 -- -- 93
2020-09-18 05:00:00 14.2 7 Este 15 Este 0.2 -- -- 92
2020-09-18 04:00:00 14.8 8 Este 14 Este 0.2 -- -- 93
2020-09-18 03:00:00 14.9 5 Sur 12 Sur 0 -- -- 92
2020-09-18 02:00:00 14.5 6 Sur 39 Sudeste 4.2 -- -- 90
2020-09-18 01:00:00 15.9 5 Oeste 14 Este 0.4 -- -- 91
2020-09-18 00:00:00 16 13 Este 21 Este 0 -- -- 91
2020-09-17 23:00:00 15.6 8 Norte 13 Noroeste 0.2 -- -- 90
2020-09-17 22:00:00 16.9 3 Noroeste 30 Este 7.4 -- -- 85
2020-09-17 21:00:00 18.4 4 Oeste 33 Sudoeste 0.2 -- -- 76
2020-09-17 20:00:00 21.2 10 Este 18 Este 0 -- -- 59
2020-09-17 19:00:00 21.7 13 Nordeste 26 Este 0 -- -- 59
2020-09-17 18:00:00 24.2 12 Este 28 Este 0 -- -- 51
2020-09-17 17:00:00 23.7 16 Este 24 Este 0 -- -- 53
2020-09-17 16:00:00 22.3 14 Este 27 Este 0 -- -- 60
2020-09-17 15:00:00 21.6 14 Este 24 Este 0 -- -- 63
2020-09-17 14:00:00 19.8 11 Este 22 Este 0 -- -- 71
2020-09-17 13:00:00 19.2 14 Sudeste 23 Sudeste 0 -- -- 71
2020-09-17 12:00:00 18.9 15 Sudeste 25 Sudeste 0 -- -- 76
2020-09-17 11:00:00 17.8 5 Este 10 Sudoeste 0 -- -- 83
2020-09-17 10:00:00 16.4 8 Sudoeste 14 Nordeste 0 -- -- 88
2020-09-17 09:00:00 16 10 Este 15 Nordeste 0 -- -- 86
2020-09-17 08:00:00 15.7 3 Norte 13 Nordeste 0 -- -- 87
2020-09-17 07:00:00 15.6 7 Nordeste 18 Nordeste 0.2 -- -- 87
2020-09-17 06:00:00 15.7 9 Nordeste 18 Sur 0.8 -- -- 87
2020-09-17 05:00:00 16.8 8 Este 24 Sudeste 0.4 -- -- 77
2020-09-17 04:00:00 18.9 11 Este 22 Nordeste 0 -- -- 68
2020-09-17 03:00:00 19.5 15 Este 23 Este 0 -- -- 61
2020-09-17 02:00:00 20.4 14 Nordeste 25 Nordeste 0 -- -- 51
2020-09-17 01:00:00 20.6 19 Nordeste 33 Nordeste 0 -- -- 52
2020-09-17 00:00:00 17.8 8 Nordeste 14 Nordeste 0 -- -- 58
2020-09-16 23:00:00 16.5 10 Norte 12 Norte 0 -- -- 71
2020-09-16 22:00:00 17.8 10 Norte 10 Norte 0 -- -- 70
2020-09-16 21:00:00 19.2 9 Norte 10 Noroeste 0 -- -- 68
2020-09-16 20:00:00 22.2 8 Noroeste 11 Noroeste 0 -- -- 56
2020-09-16 19:00:00 25 0 Calma 6 Noroeste 0 -- -- 42
2020-09-16 18:00:00 26 2 Sudeste 14 Sur 0 -- -- 38
2020-09-16 17:00:00 25.8 8 Sudeste 21 Sudeste 0 -- -- 38
2020-09-16 16:00:00 25.6 7 Sur 19 Sudeste 0 -- -- 40
2020-09-16 15:00:00 25.4 9 Sudeste 20 Sudeste 0 -- -- 40
2020-09-16 14:00:00 24.4 8 Sudeste 17 Sudeste 0 -- -- 42
2020-09-16 13:00:00 23.4 8 Sudeste 17 Sudeste 0 -- -- 47
2020-09-16 12:00:00 21.5 5 Este 13 Este 0 -- -- 53
2020-09-16 11:00:00 19.2 6 Este 11 Este 0 -- -- 63
2020-09-16 10:00:00 14.3 4 Norte 8 Noroeste 0 -- -- 85
2020-09-16 09:00:00 10.1 6 Norte 9 Noroeste 0 -- -- 93
2020-09-16 08:00:00 8.9 7 Noroeste 9 Noroeste 0 -- -- 92
2020-09-16 07:00:00 9.2 5 Noroeste 8 Noroeste 0 -- -- 90
2020-09-16 06:00:00 10 8 Norte 12 Norte 0 -- -- 89
2020-09-16 05:00:00 10.3 6 Norte 9 Norte 0 -- -- 89
2020-09-16 04:00:00 10.4 6 Norte 8 Norte 0 -- -- 88
2020-09-16 03:00:00 10.9 6 Noroeste 9 Norte 0 -- -- 86
2020-09-16 02:00:00 11.7 9 Norte 10 Norte 0 -- -- 85
2020-09-16 01:00:00 12.3 6 Norte 12 Nordeste 0 -- -- 83
2020-09-16 00:00:00 13.6 9 Noroeste 12 Noroeste 0 -- -- 79
2020-09-15 23:00:00 15.7 3 Noroeste 8 Norte 0 -- -- 73
2020-09-15 22:00:00 17.5 4 Oeste 8 Oeste 0 -- -- 67
2020-09-15 21:00:00 19.5 6 Sudoeste 8 Sudoeste 0 -- -- 60
2020-09-15 20:00:00 22.7 6 Sur 17 Sur 0 -- -- 48
2020-09-15 19:00:00 25.1 10 Sudeste 20 Sudeste 0 -- -- 42
2020-09-15 18:00:00 25.2 6 Sudeste 22 Sur 0 -- -- 44
2020-09-15 17:00:00 25.4 8 Sudeste 33 Sudeste 0 -- -- 44
2020-09-15 16:00:00 24.9 9 Sudeste 22 Sudeste 0 -- -- 48
2020-09-15 15:00:00 23.6 13 Sudeste 21 Sur 0 -- -- 53
2020-09-15 14:00:00 23 10 Sudeste 21 Sur 0 -- -- 55
2020-09-15 13:00:00 21.8 9 Sudeste 16 Este 0 -- -- 63
2020-09-15 12:00:00 19.9 6 Sudeste 13 Este 0 -- -- 69
2020-09-15 11:00:00 18.4 6 Este 13 Este 0 -- -- 74
2020-09-15 10:00:00 16 10 Nordeste 14 Nordeste 0 -- -- 85
2020-09-15 09:00:00 13.1 5 Nordeste 8 Nordeste 0 -- -- 93
2020-09-15 08:00:00 12.2 3 Nordeste 8 Nordeste 0 -- -- 92
2020-09-15 07:00:00 12.6 4 Noroeste 8 Nordeste 0 -- -- 91
2020-09-15 06:00:00 13.5 5 Nordeste 10 Norte 0 -- -- 90
2020-09-15 05:00:00 14.7 7 Nordeste 15 Nordeste 0 -- -- 89
2020-09-15 04:00:00 15 9 Nordeste 15 Nordeste 0 -- -- 90
2020-09-15 03:00:00 15.3 8 Nordeste 14 Nordeste 0 -- -- 86
2020-09-15 02:00:00 16.4 6 Nordeste 11 Nordeste 0 -- -- 79
2020-09-15 01:00:00 17.4 7 Este 19 Nordeste 0 -- -- 76
2020-09-15 00:00:00 16.2 11 Nordeste 14 Nordeste 0 -- -- 83
2020-09-14 23:00:00 15.5 9 Norte 12 Noroeste 0 -- -- 83
2020-09-14 22:00:00 16.3 9 Norte 14 Norte 0 -- -- 81
2020-09-14 21:00:00 18.6 8 Noroeste 15 Noroeste 0 -- -- 71
2020-09-14 20:00:00 22.1 11 Noroeste 21 Oeste 0 -- -- 58
2020-09-14 19:00:00 24 13 Sudeste 26 Sudeste 0 -- -- 50
2020-09-14 18:00:00 25.3 15 Sudeste 28 Este 0 -- -- 46
2020-09-14 17:00:00 26.2 17 Sudeste 27 Este 0 -- -- 43
2020-09-14 16:00:00 25 14 Sudeste 23 Este 0 -- -- 48
2020-09-14 15:00:00 24.3 14 Sudeste 22 Sudeste 0 -- -- 48
2020-09-14 14:00:00 22.7 8 Este 16 Este 0 -- -- 52
2020-09-14 13:00:00 20.7 8 Este 13 Este 0 -- -- 60
2020-09-14 12:00:00 20.4 4 Este 14 Este 0 -- -- 60
2020-09-14 11:00:00 20.7 7 Este 17 Nordeste 0 -- -- 55
2020-09-14 10:00:00 19.2 11 Nordeste 16 Nordeste 0 -- -- 59
2020-09-14 09:00:00 17.4 9 Nordeste 14 Nordeste 0 -- -- 62
2020-09-14 08:00:00 15.5 10 Nordeste 16 Nordeste 0 -- -- 66
2020-09-14 07:00:00 15.1 10 Nordeste 15 Nordeste 0 -- -- 67
2020-09-14 06:00:00 14.6 7 Nordeste 11 Nordeste 0 -- -- 71
2020-09-14 05:00:00 15.8 6 Nordeste 13 Nordeste 0 -- -- 65
2020-09-14 04:00:00 14.9 9 Nordeste 10 Nordeste 0 -- -- 71
2020-09-14 03:00:00 15 5 Nordeste 11 Nordeste 0 -- -- 74
2020-09-14 02:00:00 16.3 6 Nordeste 11 Nordeste 0 -- -- 69
2020-09-14 01:00:00 18.1 5 Nordeste 15 Nordeste 0 -- -- 62
2020-09-14 00:00:00 18.8 14 Este 16 Este 0 -- -- 60
2020-09-13 23:00:00 20.1 8 Sudoeste 24 Sudoeste 0 -- -- 54
2020-09-13 22:00:00 20.8 10 Nordeste 12 Nordeste 0 -- -- 55
2020-09-13 21:00:00 23 8 Este 11 Este 0 -- -- 48
2020-09-13 20:00:00 26.2 9 Este 16 Sudeste 0 -- -- 46
2020-09-13 19:00:00 27.6 9 Sudeste 18 Sudeste 0 -- -- 39
2020-09-13 18:00:00 29.9 12 Sudeste 19 Sudeste 0 -- -- 31
2020-09-13 17:00:00 28.2 9 Sudeste 18 Sudeste 0 -- -- 36
2020-09-13 16:00:00 29.8 12 Sur 18 Este 0 -- -- 29
2020-09-13 15:00:00 28.9 9 Sudeste 17 Este 0 -- -- 32
2020-09-13 14:00:00 27.8 7 Sudeste 15 Sudeste 0 -- -- 32
2020-09-13 13:00:00 26.2 6 Este 14 Este 0 -- -- 33
2020-09-13 12:00:00 24.5 6 Nordeste 12 Este 0 -- -- 34
2020-09-13 11:00:00 21.6 4 Noroeste 8 Noroeste 0 -- -- 42
2020-09-13 10:00:00 16.5 6 Noroeste 12 Noroeste 0 -- -- 60
2020-09-13 09:00:00 11.7 8 Noroeste 13 Noroeste 0 -- -- 75
2020-09-13 08:00:00 9.7 10 Noroeste 15 Noroeste 0 -- -- 82
2020-09-13 07:00:00 9.9 10 Noroeste 17 Norte 0 -- -- 82
2020-09-13 06:00:00 10.1 10 Noroeste 14 Noroeste 0 -- -- 82
2020-09-13 05:00:00 10.7 10 Noroeste 17 Noroeste 0 -- -- 79
2020-09-13 04:00:00 11.1 12 Noroeste 15 Noroeste 0 -- -- 79
2020-09-13 03:00:00 11.5 10 Noroeste 13 Noroeste 0 -- -- 79
2020-09-13 02:00:00 12.3 9 Norte 12 Norte 0 -- -- 77
2020-09-13 01:00:00 13.3 8 Noroeste 13 Norte 0 -- -- 73
2020-09-13 00:00:00 15.4 10 Nordeste 14 Nordeste 0 -- -- 60
2020-09-12 23:00:00 16.1 8 Norte 12 Nordeste 0 -- -- 69
2020-09-12 22:00:00 19.3 7 Nordeste 9 Nordeste 0 -- -- 56
2020-09-12 21:00:00 21.7 4 Nordeste 7 Nordeste 0 -- -- 54
2020-09-12 20:00:00 27.1 4 Este 6 Sur 0 -- -- 36
2020-09-12 19:00:00 27.9 3 Sur 8 Sudeste 0 -- -- 29
2020-09-12 18:00:00 27.9 5 Sur 12 Sudoeste 0 -- -- 26
2020-09-12 17:00:00 29 6 Sudoeste 15 Sur 0 -- -- 25
2020-09-12 16:00:00 28.3 5 Sur 17 Sudeste 0 -- -- 25
2020-09-12 15:00:00 27.9 9 Sudeste 17 Sudeste 0 -- -- 24
2020-09-12 14:00:00 26.6 9 Sudeste 16 Este 0 -- -- 27
2020-09-12 13:00:00 25.1 8 Este 16 Este 0 -- -- 32
2020-09-12 12:00:00 23.2 7 Este 16 Este 0 -- -- 39
2020-09-12 11:00:00 20.5 0 Calma 7 Noroeste 0 -- -- 55
2020-09-12 10:00:00 16.2 6 Noroeste 13 Norte 0 -- -- 73
2020-09-12 09:00:00 12.2 8 Noroeste 13 Noroeste 0 -- -- 86
2020-09-12 08:00:00 10.6 9 Norte 14 Norte 0 -- -- 89
2020-09-12 07:00:00 11.1 10 Norte 15 Norte 0 -- -- 88
2020-09-12 06:00:00 11.5 9 Noroeste 13 Noroeste 0 -- -- 88
2020-09-12 05:00:00 12.1 8 Norte 13 Noroeste 0 -- -- 87
2020-09-12 04:00:00 12.5 9 Noroeste 12 Noroeste 0 -- -- 87
2020-09-12 03:00:00 13.4 9 Noroeste 11 Noroeste 0 -- -- 83
2020-09-12 02:00:00 15.5 7 Norte 13 Nordeste 0 -- -- 75
2020-09-12 01:00:00 17.4 6 Nordeste 14 Nordeste 0 -- -- 64
2020-09-12 00:00:00 15.5 5 Nordeste 10 Norte 0 -- -- 77
2020-09-11 23:00:00 15.8 7 Norte 10 Norte 0 -- -- 78
2020-09-11 22:00:00 18 10 Norte 16 Norte 0 -- -- 67
2020-09-11 21:00:00 21.7 3 Este 6 Este 0 -- -- 56
2020-09-11 20:00:00 25.4 4 Sudeste 12 Sudeste 0 -- -- 40
2020-09-11 19:00:00 27.2 9 Sudeste 13 Sudeste 0 -- -- 32
2020-09-11 18:00:00 27.7 8 Sudeste 13 Sudeste 0 -- -- 31
2020-09-11 17:00:00 27.1 6 Este 13 Este 0 -- -- 34
2020-09-11 16:00:00 26.4 4 Sudoeste 14 Este 0 -- -- 37
2020-09-11 15:00:00 25.3 4 Oeste 12 Este 0 -- -- 41
2020-09-11 14:00:00 24.2 4 Sudoeste 12 Sudeste 0 -- -- 44
2020-09-11 13:00:00 22.8 4 Nordeste 12 Este 0 -- -- 47
2020-09-11 12:00:00 21.3 3 Este 13 Este 0 -- -- 54
2020-09-11 11:00:00 18.8 4 Norte 9 Norte 0 -- -- 62
2020-09-11 10:00:00 15.4 7 Noroeste 12 Noroeste 0 -- -- 80
2020-09-11 09:00:00 11.4 8 Norte 11 Noroeste 0 -- -- 92
2020-09-11 08:00:00 9.8 7 Norte 13 Noroeste 0 -- -- 91
2020-09-11 07:00:00 10.2 6 Noroeste 10 Noroeste 0 -- -- 91
2020-09-11 06:00:00 10.6 8 Norte 13 Noroeste 0 -- -- 90
2020-09-11 05:00:00 11 9 Noroeste 11 Noroeste 0 -- -- 90
2020-09-11 04:00:00 11.4 8 Noroeste 10 Noroeste 0 -- -- 89
2020-09-11 03:00:00 11.9 7 Noroeste 9 Noroeste 0 -- -- 88
2020-09-11 02:00:00 13 6 Noroeste 8 Noroeste 0 -- -- 83
2020-09-11 01:00:00 15.3 7 Nordeste 15 Nordeste 0 -- -- 72
2020-09-11 00:00:00 15.8 6 Nordeste 15 Norte 0 -- -- 71
2020-09-10 23:00:00 17.1 10 Norte 17 Norte 0 -- -- 65
2020-09-10 22:00:00 17.3 8 Norte 10 Norte 0 -- -- 74
2020-09-10 21:00:00 21.6 0 Calma 9 Sur 0 -- -- 57
2020-09-10 20:00:00 25 6 Sudeste 12 Sudeste 0 -- -- 42
2020-09-10 19:00:00 26.3 9 Sudeste 15 Sudeste 0 -- -- 36
2020-09-10 18:00:00 26.6 9 Sudeste 14 Sudeste 0 -- -- 35
2020-09-10 17:00:00 26.6 6 Este 14 Este 0 -- -- 35
2020-09-10 16:00:00 26.2 3 Noroeste 12 Sur 0 -- -- 36
2020-09-10 15:00:00 25.4 6 Sur 13 Sur 0 -- -- 37
2020-09-10 14:00:00 24.2 5 Este 10 Este 0 -- -- 42
2020-09-10 13:00:00 23.1 5 Sudeste 14 Sudeste 0 -- -- 46
2020-09-10 12:00:00 21.9 7 Este 14 Este 0 -- -- 49
2020-09-10 11:00:00 19.8 3 Norte 13 Noroeste 0 -- -- 55
2020-09-10 10:00:00 15.4 9 Noroeste 13 Noroeste 0 -- -- 73
2020-09-10 09:00:00 11.3 9 Noroeste 14 Norte 0 -- -- 87
2020-09-10 08:00:00 9.9 9 Noroeste 16 Noroeste 0 -- -- 89
2020-09-10 07:00:00 9.8 12 Noroeste 18 Noroeste 0 -- -- 90
2020-09-10 06:00:00 10.1 9 Noroeste 15 Norte 0 -- -- 89
2020-09-10 05:00:00 10.8 10 Noroeste 15 Norte 0 -- -- 88
2020-09-10 04:00:00 11 10 Noroeste 14 Noroeste 0 -- -- 87
2020-09-10 03:00:00 11.3 9 Noroeste 12 Noroeste 0 -- -- 87
2020-09-10 02:00:00 11.6 7 Noroeste 9 Norte 0 -- -- 86
2020-09-10 01:00:00 13.1 5 Norte 10 Nordeste 0 -- -- 80
2020-09-10 00:00:00 14.7 6 Nordeste 15 Nordeste 0 -- -- 71
2020-09-09 23:00:00 15.1 9 Nordeste 18 Nordeste 0 -- -- 65
2020-09-09 22:00:00 16.1 7 Norte 8 Norte 0 -- -- 73
2020-09-09 21:00:00 21 0 Calma 6 Sudeste 0 -- -- 55
2020-09-09 20:00:00 24.5 5 Sudeste 12 Sur 0 -- -- 37
2020-09-09 19:00:00 26.2 7 Sudeste 14 Sudeste 0 -- -- 28
2020-09-09 18:00:00 26.7 8 Sudeste 14 Sur 0 -- -- 25
2020-09-09 17:00:00 26.7 8 Sudeste 15 Sur 0 -- -- 26
2020-09-09 16:00:00 26.1 4 Sudoeste 12 Sur 0 -- -- 27
2020-09-09 15:00:00 25.3 6 Sudeste 10 Sudeste 0 -- -- 28
2020-09-09 14:00:00 24.2 3 Sudeste 12 Este 0 -- -- 33
2020-09-09 13:00:00 22.5 5 Sudeste 13 Este 0 -- -- 36
2020-09-09 12:00:00 20.8 7 Este 19 Este 0 -- -- 39
2020-09-09 11:00:00 19.5 9 Este 17 Este 0 -- -- 45
2020-09-09 10:00:00 14.7 5 Noroeste 12 Norte 0 -- -- 67
2020-09-09 09:00:00 9.4 8 Norte 13 Noroeste 0 -- -- 85
2020-09-09 08:00:00 7.4 9 Norte 14 Norte 0 -- -- 87
2020-09-09 07:00:00 7.7 9 Noroeste 13 Noroeste 0 -- -- 86
2020-09-09 06:00:00 8.2 9 Noroeste 15 Noroeste 0 -- -- 85
2020-09-09 05:00:00 8.6 10 Noroeste 14 Norte 0 -- -- 84
2020-09-09 04:00:00 8.7 10 Norte 14 Noroeste 0 -- -- 85
2020-09-09 03:00:00 9.1 9 Noroeste 13 Noroeste 0 -- -- 85
2020-09-09 02:00:00 10.1 8 Norte 10 Norte 0 -- -- 82
2020-09-09 01:00:00 11.2 6 Nordeste 10 Nordeste 0 -- -- 79
2020-09-09 00:00:00 12.7 9 Nordeste 12 Nordeste 0 -- -- 69
2020-09-08 23:00:00 13.1 8 Norte 12 Nordeste 0 -- -- 73
2020-09-08 22:00:00 15.6 5 Nordeste 8 Nordeste 0 -- -- 59
2020-09-08 21:00:00 18.8 5 Nordeste 12 Nordeste 0 -- -- 57
2020-09-08 20:00:00 22.7 5 Nordeste 9 Este 0 -- -- 41
2020-09-08 19:00:00 24 4 Nordeste 14 Este 0 -- -- 32
2020-09-08 18:00:00 24.3 7 Este 17 Este 0 -- -- 33
2020-09-08 17:00:00 24 9 Este 24 Sudeste 0 -- -- 33
2020-09-08 16:00:00 23 12 Este 24 Este 0 -- -- 35
2020-09-08 15:00:00 22.1 13 Este 28 Este 0 -- -- 38
2020-09-08 14:00:00 20.4 14 Este 29 Este 0 -- -- 42
2020-09-08 13:00:00 18.9 15 Este 31 Este 0 -- -- 46
2020-09-08 12:00:00 17.4 18 Este 30 Este 0 -- -- 52
2020-09-08 11:00:00 15.2 16 Nordeste 26 Nordeste 0 -- -- 57
2020-09-08 10:00:00 11.4 6 Noroeste 13 Noroeste 0 -- -- 82
2020-09-08 09:00:00 8.2 9 Noroeste 15 Noroeste 0 -- -- 92
2020-09-08 08:00:00 6 9 Noroeste 15 Noroeste 0 -- -- 93
2020-09-08 07:00:00 6.2 5 Noroeste 9 Noroeste 0 -- -- 92
2020-09-08 06:00:00 6.6 3 Noroeste 8 Oeste 0 -- -- 92
2020-09-08 05:00:00 7.4 3 Oeste 8 Norte 0 -- -- 89
2020-09-08 04:00:00 8.2 4 Norte 7 Sur 0 -- -- 89
2020-09-08 03:00:00 8.7 4 Oeste 10 Norte 0 -- -- 88
2020-09-08 02:00:00 9.8 6 Norte 10 Norte 0 -- -- 86
2020-09-08 01:00:00 10.7 5 Norte 19 Este 0 -- -- 82
2020-09-08 00:00:00 11.6 9 Nordeste 17 Este 0 -- -- 75
2020-09-07 23:00:00 12.5 10 Este 14 Este 0 -- -- 73
2020-09-07 22:00:00 14.8 8 Este 22 Este 0 -- -- 64
2020-09-07 21:00:00 17 12 Este 14 Este 0 -- -- 59
2020-09-07 20:00:00 20.9 9 Sudeste 18 Este 0 -- -- 48
2020-09-07 19:00:00 22.9 6 Sur 14 Este 0 -- -- 37
2020-09-07 18:00:00 22.8 8 Sudeste 18 Este 0 -- -- 36
2020-09-07 17:00:00 22.2 6 Sudeste 18 Este 0 -- -- 38
2020-09-07 16:00:00 21.3 8 Sudeste 22 Este 0 -- -- 41
2020-09-07 15:00:00 20.1 9 Sudeste 22 Este 0 -- -- 43
2020-09-07 14:00:00 19.5 10 Este 19 Este 0 -- -- 47
2020-09-07 13:00:00 18.2 9 Este 18 Este 0 -- -- 49
2020-09-07 12:00:00 16.7 8 Este 15 Nordeste 0 -- -- 52
2020-09-07 11:00:00 14 3 Sudeste 9 Sudoeste 0 -- -- 70
2020-09-07 10:00:00 11.5 4 Noroeste 11 Noroeste 0 -- -- 85
2020-09-07 09:00:00 7.9 6 Noroeste 10 Noroeste 0 -- -- 93
2020-09-07 08:00:00 7.2 6 Noroeste 10 Noroeste 0 -- -- 93
2020-09-07 07:00:00 7.7 5 Norte 7 Noroeste 0 -- -- 92
2020-09-07 06:00:00 8 5 Norte 8 Noroeste 0 -- -- 92
2020-09-07 05:00:00 8.6 4 Noroeste 6 Noroeste 0 -- -- 91
2020-09-07 04:00:00 9.5 3 Oeste 6 Sur 0 -- -- 89
2020-09-07 03:00:00 10.3 5 Sur 8 Sudeste 0 -- -- 84
2020-09-07 02:00:00 10.8 4 Sudeste 9 Sudeste 0 -- -- 85
2020-09-07 01:00:00 11.2 6 Sur 9 Sur 0 -- -- 87
2020-09-07 00:00:00 12.8 3 Sur 7 Este 0 -- -- 83
2020-09-06 23:00:00 14.7 5 Este 18 Este 0 -- -- 71
2020-09-06 22:00:00 16.8 12 Este 25 Este 0 -- -- 64
2020-09-06 21:00:00 19.4 13 Este 28 Este 0 -- -- 56
2020-09-06 20:00:00 24.1 9 Sudeste 20 Sudeste 0 -- -- 49
2020-09-06 19:00:00 25.9 9 Sur 17 Sur 0 -- -- 43
2020-09-06 18:00:00 26.1 10 Sur 18 Sudeste 0 -- -- 43
2020-09-06 17:00:00 25.4 9 Sudeste 19 Este 0 -- -- 44
2020-09-06 16:00:00 24.6 8 Sudeste 17 Sudeste 0 -- -- 46
2020-09-06 15:00:00 23.7 6 Sudeste 14 Este 0 -- -- 49
2020-09-06 14:00:00 22.3 6 Sudeste 15 Sur 0 -- -- 51
2020-09-06 13:00:00 20.5 4 Sudeste 13 Sudeste 0 -- -- 60
2020-09-06 12:00:00 18.6 4 Este 15 Este 0 -- -- 67
2020-09-06 11:00:00 17 2 Sur 6 Sur 0 -- -- 75
2020-09-06 10:00:00 15.1 2 Noroeste 6 Norte 0 -- -- 87
2020-09-06 09:00:00 12.5 2 Norte 8 Noroeste 0 -- -- 95
2020-09-06 08:00:00 10.7 5 Norte 7 Norte 0 -- -- 94
2020-09-06 07:00:00 11 5 Norte 9 Norte 0 -- -- 93
2020-09-06 06:00:00 11.5 6 Norte 10 Noroeste 0 -- -- 93
2020-09-06 05:00:00 11.8 5 Norte 8 Norte 0 -- -- 92
2020-09-06 04:00:00 12.6 4 Oeste 6 Este 0 -- -- 90
2020-09-06 03:00:00 13.4 6 Este 14 Este 0 -- -- 87
2020-09-06 02:00:00 13.8 8 Este 14 Nordeste 0 -- -- 83
2020-09-06 01:00:00 15.5 8 Nordeste 13 Nordeste 0 -- -- 76
2020-09-06 00:00:00 16.2 8 Nordeste 17 Nordeste 0 -- -- 73
2020-09-05 23:00:00 17.7 9 Nordeste 19 Nordeste 0 -- -- 67
2020-09-05 22:00:00 19.2 9 Nordeste 28 Nordeste 0 -- -- 69
2020-09-05 21:00:00 22.2 21 Este 31 Nordeste 0 -- -- 58
2020-09-05 20:00:00 26.7 5 Este 11 Sur 0 -- -- 47
2020-09-05 19:00:00 29.2 6 Sur 14 Sudoeste 0 -- -- 33
2020-09-05 18:00:00 29.4 8 Sudoeste 14 Sur 0 -- -- 31
2020-09-05 17:00:00 29.4 5 Sur 15 Sur 0 -- -- 32
2020-09-05 16:00:00 28.7 5 Sur 15 Sudeste 0 -- -- 36
2020-09-05 15:00:00 28 6 Sudeste 14 Este 0 -- -- 39
2020-09-05 14:00:00 26.8 6 Sudeste 15 Sudeste 0 -- -- 43
2020-09-05 13:00:00 25.1 8 Sudeste 16 Sudeste 0 -- -- 44
2020-09-05 12:00:00 24.1 10 Este 21 Este 0 -- -- 44
2020-09-05 11:00:00 22.1 5 Sudeste 9 Este 0 -- -- 51
2020-09-05 10:00:00 18.1 0 Calma 8 Noroeste 0 -- -- 66
2020-09-05 09:00:00 13.9 3 Norte 12 Norte 0 -- -- 84
2020-09-05 08:00:00 12.1 8 Noroeste 13 Noroeste 0 -- -- 87
2020-09-05 07:00:00 12.6 9 Noroeste 16 Noroeste 0 -- -- 86
2020-09-05 06:00:00 13.5 10 Noroeste 18 Noroeste 0 -- -- 84
2020-09-05 05:00:00 13.6 12 Noroeste 17 Norte 0 -- -- 87
2020-09-05 04:00:00 13.8 9 Noroeste 13 Noroeste 0 -- -- 85
2020-09-05 03:00:00 14.8 7 Noroeste 11 Nordeste 0 -- -- 82
2020-09-05 02:00:00 17.2 9 Norte 22 Noroeste 0 -- -- 71
2020-09-05 01:00:00 18.2 13 Noroeste 20 Noroeste 0 -- -- 67
2020-09-05 00:00:00 17.3 11 Noroeste 15 Noroeste 0 -- -- 67
2020-09-04 23:00:00 18.8 13 Noroeste 17 Oeste 0 -- -- 58
2020-09-04 22:00:00 20.1 14 Oeste 19 Sudoeste 0 -- -- 58
2020-09-04 21:00:00 23.7 7 Sudeste 12 Este 0 -- -- 46
2020-09-04 20:00:00 27.3 11 Este 14 Este 0 -- -- 40
2020-09-04 19:00:00 29.3 10 Este 19 Este 0 -- -- 33
2020-09-04 18:00:00 29.5 15 Este 21 Este 0 -- -- 29
2020-09-04 17:00:00 29.8 10 Sudeste 18 Este 0 -- -- 26
2020-09-04 16:00:00 29.4 8 Sudeste 15 Sudeste 0 -- -- 30
2020-09-04 15:00:00 28.5 9 Sur 16 Sur 0 -- -- 32
2020-09-04 14:00:00 27.2 8 Sudeste 13 Sudeste 0 -- -- 31
2020-09-04 13:00:00 25.8 6 Sudeste 13 Este 0 -- -- 33
2020-09-04 12:00:00 24 5 Nordeste 12 Este 0 -- -- 37
2020-09-04 11:00:00 22 6 Este 11 Nordeste 0 -- -- 40
2020-09-04 10:00:00 17.4 3 Noroeste 10 Norte 0 -- -- 66
2020-09-04 09:00:00 12.5 8 Noroeste 11 Noroeste 0 -- -- 82
2020-09-04 08:00:00 10.3 9 Norte 14 Noroeste 0 -- -- 87
2020-09-04 07:00:00 10.4 10 Noroeste 14 Noroeste 0 -- -- 88
2020-09-04 06:00:00 10.9 8 Norte 15 Noroeste 0 -- -- 87
2020-09-04 05:00:00 11.2 10 Noroeste 14 Noroeste 0 -- -- 87
2020-09-04 04:00:00 11.7 9 Norte 13 Norte 0 -- -- 85
2020-09-04 03:00:00 12.1 9 Norte 11 Norte 0 -- -- 81
2020-09-04 02:00:00 12.7 8 Nordeste 13 Noroeste 0 -- -- 80
2020-09-04 01:00:00 13.3 10 Noroeste 13 Noroeste 0 -- -- 81
2020-09-04 00:00:00 14 9 Noroeste 12 Norte 0 -- -- 79
2020-09-03 23:00:00 17.3 6 Nordeste 10 Este 0 -- -- 67
2020-09-03 22:00:00 19.3 8 Este 12 Este 0 -- -- 60
2020-09-03 21:00:00 23.1 6 Sudeste 10 Sudeste 0 -- -- 46
2020-09-03 20:00:00 25.6 6 Sudeste 10 Sudeste 0 -- -- 44
2020-09-03 19:00:00 27.5 6 Sudeste 13 Este 0 -- -- 36
2020-09-03 18:00:00 27.8 5 Sudeste 12 Sudeste 0 -- -- 34
2020-09-03 17:00:00 27.8 6 Sur 16 Sudoeste 0 -- -- 31
2020-09-03 16:00:00 26.8 8 Sudoeste 18 Sur 0 -- -- 32
2020-09-03 15:00:00 25.7 9 Sudeste 14 Sudeste 0 -- -- 40
2020-09-03 14:00:00 24.5 6 Sur 14 Sur 0 -- -- 43
2020-09-03 13:00:00 22.7 6 Sudeste 14 Sudeste 0 -- -- 46
2020-09-03 12:00:00 21 5 Sur 13 Sur 0 -- -- 49
2020-09-03 11:00:00 19 2 Este 7 Noroeste 0 -- -- 58
2020-09-03 10:00:00 15.1 5 Norte 14 Noroeste 0 -- -- 79
2020-09-03 09:00:00 11 7 Noroeste 13 Norte 0 -- -- 90
2020-09-03 08:00:00 8.7 9 Noroeste 12 Noroeste 0 -- -- 92
2020-09-03 07:00:00 8.9 4 Noroeste 9 Noroeste 0 -- -- 91
2020-09-03 06:00:00 9.4 6 Noroeste 11 Noroeste 0 -- -- 90
2020-09-03 05:00:00 9.8 8 Noroeste 12 Noroeste 0 -- -- 89
2020-09-03 04:00:00 10.1 8 Noroeste 12 Noroeste 0 -- -- 89
2020-09-03 03:00:00 10.6 8 Noroeste 12 Noroeste 0 -- -- 87
2020-09-03 02:00:00 11.3 6 Norte 8 Norte 0 -- -- 85
2020-09-03 01:00:00 12.3 4 Nordeste 20 Este 0 -- -- 81
2020-09-03 00:00:00 12.7 8 Noroeste 12 Norte 0 -- -- 81
2020-09-02 23:00:00 14.1 10 Norte 12 Norte 0 -- -- 80
2020-09-02 22:00:00 17.1 3 Nordeste 4 Sudeste 0 -- -- 69
2020-09-02 21:00:00 20.7 4 Sudeste 9 Sudeste 0 -- -- 52
2020-09-02 20:00:00 22.9 5 Sudeste 9 Sudeste 0 -- -- 46
2020-09-02 19:00:00 24.1 6 Sudeste 12 Sudeste 0 -- -- 37
2020-09-02 18:00:00 24.2 7 Sudeste 12 Sudoeste 0 -- -- 40
2020-09-02 17:00:00 23.7 4 Norte 12 Nordeste 0 -- -- 41
2020-09-02 16:00:00 22.5 5 Norte 13 Sudoeste 0 -- -- 43
2020-09-02 15:00:00 22.3 6 Sudeste 14 Sur 0 -- -- 44
2020-09-02 14:00:00 20.9 5 Sudeste 24 Este 0 -- -- 48
2020-09-02 13:00:00 19.8 10 Sudeste 18 Este 0 -- -- 52
2020-09-02 12:00:00 18.3 10 Este 26 Este 0 -- -- 53
2020-09-02 11:00:00 16.2 3 Nordeste 10 Nordeste 0 -- -- 68
2020-09-02 10:00:00 13.9 7 Noroeste 12 Norte 0 -- -- 84
2020-09-02 09:00:00 10.4 4 Noroeste 8 Noroeste 0 -- -- 94
2020-09-02 08:00:00 8.2 7 Norte 12 Noroeste 0 -- -- 94
2020-09-02 07:00:00 8.5 8 Noroeste 10 Noroeste 0 -- -- 93
2020-09-02 06:00:00 8.8 4 Noroeste 5 Noroeste 0 -- -- 92
2020-09-02 05:00:00 9.3 3 Oeste 6 Oeste 0 -- -- 91
2020-09-02 04:00:00 9.4 3 Nordeste 8 Este 0 -- -- 90
2020-09-02 03:00:00 10.4 0 Calma 5 Este 0 -- -- 88
2020-09-02 02:00:00 11.2 0 Calma 8 Norte 0 -- -- 85
2020-09-02 01:00:00 12.5 5 Nordeste 12 Nordeste 0 -- -- 80
2020-09-02 00:00:00 13.3 6 Nordeste 17 Nordeste 0 -- -- 78
2020-09-01 23:00:00 15 9 Nordeste 18 Nordeste 0 -- -- 71
2020-09-01 22:00:00 16.3 9 Nordeste 22 Norte 0 -- -- 66
2020-09-01 21:00:00 17.9 10 Norte 16 Nordeste 0 -- -- 62
2020-09-01 20:00:00 23 4 Sur 12 Sur 0 -- -- 40
2020-09-01 19:00:00 24.1 8 Sudeste 18 Sudeste 0 -- -- 32
2020-09-01 18:00:00 24.1 11 Sudeste 19 Este 0 -- -- 33
2020-09-01 17:00:00 24.3 5 Este 15 Este 0 -- -- 30
2020-09-01 16:00:00 23.5 7 Sudeste 15 Sudeste 0 -- -- 32
2020-09-01 15:00:00 22.8 7 Sudoeste 20 Sudoeste 0 -- -- 32
2020-09-01 14:00:00 22.2 6 Sudeste 13 Sudeste 0 -- -- 38
2020-09-01 13:00:00 21.1 5 Sudeste 13 Este 0 -- -- 38
2020-09-01 12:00:00 19.9 5 Este -- -- -- -- -- 44
2020-09-01 11:00:00 18.2 5 Nordeste 11 Nordeste 0 -- -- 52
2020-09-01 10:00:00 16.1 6 Nordeste 12 Nordeste 0 -- -- 60
2020-09-01 09:00:00 12.2 5 Norte -- -- 0 -- -- 87
2020-09-01 08:00:00 -- -- -- -- -- 0 -- -- --
2020-09-01 07:00:00 -- -- -- -- -- 0 -- -- --
2020-09-01 06:00:00 10.9 5 Este 8 Este 0 -- -- 88
2020-09-01 05:00:00 11.5 3 Noroeste 9 Norte 0 -- -- 84
2020-09-01 04:00:00 11.6 6 Norte 9 Norte 0 -- -- 85
2020-09-01 03:00:00 11.9 3 Norte 9 Norte 0 -- -- 82
2020-09-01 02:00:00 11.5 7 Noroeste 10 Noroeste 0 -- -- 81
2020-09-01 01:00:00 11.2 8 Noroeste 10 Noroeste 0 -- -- 84
2020-09-01 00:00:00 11.6 7 Norte 10 Norte 0 -- -- 84
2020-08-31 23:00:00 12.6 8 Norte 10 Norte 0 -- -- 79
2020-08-31 22:00:00 14.9 2 Nordeste 5 Sudeste 0 -- -- 72
2020-08-31 21:00:00 17 5 Sudeste 7 Este 0 -- -- 61
2020-08-31 20:00:00 18.6 3 Este 7 Este 0 -- -- 55
2020-08-31 19:00:00 19.6 6 Este 13 Este 0 -- -- 44
2020-08-31 18:00:00 20.2 8 Sudeste 13 Sur 0 -- -- 41
2020-08-31 17:00:00 19.3 6 Sudeste 11 Sudoeste 0 -- -- 41
2020-08-31 16:00:00 19.3 6 Sudoeste 15 Sudoeste 0 -- -- 38
2020-08-31 15:00:00 18.4 8 Sudoeste 21 Sur 0 -- -- 44
2020-08-31 14:00:00 17.2 9 Sur 19 Sur 0 -- -- 47
2020-08-31 13:00:00 16.3 4 Sudeste 13 Sudeste 0 -- -- 50
2020-08-31 12:00:00 15 4 Sudoeste 8 Sur 0 -- -- 57
2020-08-31 11:00:00 13.2 3 Nordeste 9 Noroeste 0 -- -- 63
2020-08-31 10:00:00 10.1 6 Noroeste -- -- 0 -- -- 82
2020-08-31 09:00:00 -- -- -- -- -- 0 -- -- --
2020-08-31 08:00:00 -- -- -- -- -- 0 -- -- --
2020-08-31 07:00:00 -- -- -- -- -- 0 -- -- --
2020-08-31 06:00:00 4.9 8 Noroeste 12 Norte 0 -- -- 92
2020-08-31 05:00:00 5.3 6 Noroeste 10 Norte 0 -- -- 92
2020-08-31 04:00:00 5.8 7 Noroeste 10 Noroeste 0 -- -- 91
2020-08-31 03:00:00 6.6 6 Norte 8 Norte 0 -- -- 90
2020-08-31 02:00:00 7.7 6 Noroeste 8 Nordeste 0 -- -- 88
2020-08-31 01:00:00 8.5 5 Norte 9 Nordeste 0 -- -- 85
2020-08-31 00:00:00 10.3 8 Nordeste 16 Este 0 -- -- 77
2020-08-30 23:00:00 10.7 10 Nordeste 15 Nordeste 0 -- -- 73
2020-08-30 22:00:00 13 10 Nordeste 16 Norte 0 -- -- 62
2020-08-30 21:00:00 16 4 Este 10 Sudeste 0 -- -- 48
2020-08-30 20:00:00 18.6 6 Sudeste 14 Sur 0 -- -- 37
2020-08-30 19:00:00 19.3 4 Sur 17 Noroeste 0 -- -- 31
2020-08-30 18:00:00 19 4 Nordeste 14 Norte 0 -- -- 34
2020-08-30 17:00:00 18.2 7 Norte 18 Sudoeste 0 -- -- 38
2020-08-30 16:00:00 17.7 5 Este 19 Norte 0 -- -- 37
2020-08-30 15:00:00 17.4 10 Norte 20 Noroeste 0 -- -- 38
2020-08-30 14:00:00 16 8 Norte 23 Nordeste 0 -- -- 43
2020-08-30 13:00:00 16.1 8 Norte 20 Noroeste 0 -- -- 45
2020-08-30 12:00:00 14.8 9 Noroeste 21 Noroeste 0 -- -- 52
2020-08-30 11:00:00 12.6 8 Noroeste 16 Noroeste 0 -- -- 65
2020-08-30 10:00:00 10.4 11 Noroeste 17 Noroeste 0 -- -- 76
2020-08-30 09:00:00 -- -- -- -- -- 0 -- -- --
2020-08-30 08:00:00 -- -- -- -- -- 0 -- -- --
2020-08-30 07:00:00 -- -- -- -- -- 0 -- -- --
2020-08-30 06:00:00 6.7 6 Noroeste 14 Noroeste 0 -- -- 90
2020-08-30 05:00:00 5.9 8 Noroeste 9 Noroeste 0 -- -- 89
2020-08-30 04:00:00 6.4 8 Noroeste 10 Noroeste 0 -- -- 88
2020-08-30 03:00:00 6.8 0 Calma 8 Noroeste 0 -- -- 86
2020-08-30 02:00:00 7.1 8 Noroeste 10 Noroeste 0 -- -- 87
2020-08-30 01:00:00 7.8 8 Noroeste 14 Noroeste 0 -- -- 84
2020-08-30 00:00:00 8.8 12 Noroeste 16 Noroeste 0 -- -- 81
2020-08-29 23:00:00 9.2 9 Noroeste 13 Noroeste 0 -- -- 81
2020-08-29 22:00:00 10.5 8 Noroeste 17 Noroeste 0 -- -- 73
2020-08-29 21:00:00 12.6 9 Noroeste 32 Norte 0 -- -- 63
2020-08-29 20:00:00 14.2 21 Noroeste 38 Noroeste 0 -- -- 57
2020-08-29 19:00:00 16.6 22 Noroeste 37 Noroeste 0 -- -- 51
2020-08-29 18:00:00 16.4 24 Norte 43 Norte 0 -- -- 50
2020-08-29 17:00:00 17.7 27 Noroeste 42 Noroeste 0 -- -- 49
2020-08-29 16:00:00 18 21 Noroeste 36 Noroeste 0 -- -- 48
2020-08-29 15:00:00 17.2 16 Norte 36 Noroeste 0 -- -- 50
2020-08-29 14:00:00 15.6 22 Noroeste 36 Norte 0 -- -- 53
2020-08-29 13:00:00 14.7 17 Norte 32 Norte 0 -- -- 55
2020-08-29 12:00:00 13.7 17 Oeste 32 Oeste 0 -- -- 65
2020-08-29 11:00:00 13.5 18 Oeste 29 Oeste 0 -- -- 65
2020-08-29 10:00:00 13.3 18 Oeste 27 Oeste 0 -- -- 69
2020-08-29 09:00:00 10.8 12 Oeste -- -- 0 -- -- 80
2020-08-29 08:00:00 -- -- -- -- -- 0 -- -- --
2020-08-29 07:00:00 9.2 13 Oeste 20 Oeste 0 -- -- 89
2020-08-29 06:00:00 8.2 9 Oeste 16 Oeste 0 -- -- 90
2020-08-29 05:00:00 8.9 11 Oeste 23 Oeste 0 -- -- 87
2020-08-29 04:00:00 8.8 9 Oeste 21 Oeste 0 -- -- 84
2020-08-29 03:00:00 9.3 12 Noroeste 23 Oeste 0 -- -- 81
2020-08-29 02:00:00 10 15 Noroeste 25 Noroeste 0 -- -- 74
2020-08-29 01:00:00 10.8 10 Noroeste 29 Noroeste 0 -- -- 67
2020-08-29 00:00:00 11.9 12 Noroeste 24 Noroeste 0 -- -- 64
2020-08-28 23:00:00 12.5 19 Noroeste 27 Noroeste 0 -- -- 66
2020-08-28 22:00:00 14.1 17 Noroeste 37 Oeste 0 -- -- 60
2020-08-28 21:00:00 15.8 20 Oeste 33 Oeste 0 -- -- 52
2020-08-28 20:00:00 18.7 19 Noroeste 34 Noroeste 0 -- -- 39
2020-08-28 19:00:00 19.7 24 Noroeste 39 Oeste 0 -- -- 39
2020-08-28 18:00:00 20.6 25 Oeste 47 Oeste 0 -- -- 40
2020-08-28 17:00:00 20.9 30 Oeste 42 Oeste 0 -- -- 40
2020-08-28 16:00:00 21.3 27 Oeste 41 Sudoeste 0 -- -- 43
2020-08-28 15:00:00 21.2 22 Oeste 42 Oeste 0 -- -- 41
2020-08-28 14:00:00 20.5 28 Oeste 45 Oeste 0 -- -- 43
2020-08-28 13:00:00 19.6 24 Oeste 39 Oeste 0 -- -- 44
2020-08-28 12:00:00 18.1 29 Oeste 40 Oeste 0 -- -- 48
2020-08-28 11:00:00 17.4 27 Oeste 39 Oeste 0 -- -- 53
2020-08-28 10:00:00 16.4 27 Oeste 37 Oeste 0 -- -- 62
2020-08-28 09:00:00 -- -- -- -- -- 0 -- -- --
2020-08-28 08:00:00 -- -- -- -- -- 0 -- -- --
2020-08-28 07:00:00 14.7 12 Oeste 32 Oeste 0 -- -- 85
2020-08-28 06:00:00 15.7 17 Oeste 28 Oeste 0 -- -- 85
2020-08-28 05:00:00 16.3 13 Oeste 26 Oeste 0 -- -- 84
2020-08-28 04:00:00 17.3 15 Oeste 27 Oeste 0 -- -- 80
2020-08-28 03:00:00 18.1 18 Noroeste 28 Oeste 0 -- -- 75
2020-08-28 02:00:00 18.6 16 Noroeste 24 Oeste 0 -- -- 71
2020-08-28 01:00:00 18.5 13 Oeste 26 Oeste 0 -- -- 70
2020-08-28 00:00:00 19.7 17 Oeste 35 Oeste 0 -- -- 66
2020-08-27 23:00:00 21.1 18 Oeste 34 Oeste 0 -- -- 60
2020-08-27 22:00:00 21.6 12 Oeste 33 Noroeste 0 -- -- 57
2020-08-27 21:00:00 23.6 20 Oeste 35 Oeste 0 -- -- 53
2020-08-27 20:00:00 25.8 21 Oeste 34 Oeste 0 -- -- 47
2020-08-27 19:00:00 27 15 Noroeste 33 Oeste 0 -- -- 49
2020-08-27 18:00:00 29 18 Oeste 32 Oeste 0 -- -- 42
2020-08-27 17:00:00 28.3 13 Oeste 25 Oeste 0 -- -- 42
2020-08-27 16:00:00 29.5 12 Sudoeste 27 Sudeste 0 -- -- 39
2020-08-27 15:00:00 28.6 12 Sur 19 Sudoeste 0 -- -- 45
2020-08-27 14:00:00 27.4 8 Oeste 19 Oeste 0 -- -- 47
2020-08-27 13:00:00 26.1 12 Oeste 26 Oeste 0 -- -- 49
2020-08-27 12:00:00 23.8 12 Noroeste 22 Noroeste 0 -- -- 61
2020-08-27 11:00:00 21.8 15 Noroeste 26 Oeste 0 -- -- 72
2020-08-27 10:00:00 19.7 9 Noroeste 16 Noroeste 0 -- -- 80
2020-08-27 09:00:00 16.5 6 Norte -- -- 0 -- -- 86
2020-08-27 08:00:00 14.9 11 Norte 14 Norte 0 -- -- 90
2020-08-27 07:00:00 14.4 9 Norte 11 Norte 0 -- -- 90
2020-08-27 06:00:00 15.2 7 Norte 18 Noroeste 0 -- -- 87
2020-08-27 05:00:00 16.4 9 Noroeste 15 Noroeste 0 -- -- 85
2020-08-27 04:00:00 15.7 8 Norte 11 Norte 0 -- -- 84
2020-08-27 03:00:00 18 10 Noroeste 15 Noroeste 0 -- -- 77
2020-08-27 02:00:00 19.3 11 Noroeste 18 Noroeste 0 -- -- 75
2020-08-27 01:00:00 19.4 14 Noroeste 19 Noroeste 0 -- -- 76
2020-08-27 00:00:00 20.1 11 Noroeste 17 Noroeste 0 -- -- 71
2020-08-26 23:00:00 19.8 12 Noroeste 14 Noroeste 0 -- -- 75
2020-08-26 22:00:00 22.2 12 Oeste 14 Oeste 0 -- -- 63
2020-08-26 21:00:00 25.1 9 Oeste 15 Oeste 0 -- -- 51
2020-08-26 20:00:00 29.5 6 Noroeste 18 Oeste 0 -- -- 38
2020-08-26 19:00:00 30.4 3 Sudoeste 12 Sur 0 -- -- 38
2020-08-26 18:00:00 29.6 9 Sudeste 18 Este 0 -- -- 39
2020-08-26 17:00:00 29.1 10 Sudeste 17 Este 0 -- -- 39
2020-08-26 16:00:00 28.7 10 Sudeste 17 Este 0 -- -- 38
2020-08-26 15:00:00 27.9 9 Sudeste 16 Sudeste 0 -- -- 44
2020-08-26 14:00:00 26.8 6 Sur 14 Sudoeste 0 -- -- 45
2020-08-26 13:00:00 25.1 4 Este 9 Sudeste 0 -- -- 52
2020-08-26 12:00:00 23.1 3 Sur 7 Sudoeste 0 -- -- 58
2020-08-26 11:00:00 21.4 3 Oeste 9 Noroeste 0 -- -- 62
2020-08-26 10:00:00 17.9 6 Noroeste 10 Noroeste 0 -- -- 76
2020-08-26 09:00:00 -- -- -- -- -- 0 -- -- --
2020-08-26 08:00:00 11.8 9 Noroeste 16 Noroeste 0 -- -- 93
2020-08-26 07:00:00 12.1 8 Noroeste 13 Noroeste 0 -- -- 92
2020-08-26 06:00:00 12.6 7 Noroeste 12 Norte 0 -- -- 91
2020-08-26 05:00:00 13.1 8 Norte 10 Norte 0 -- -- 90
2020-08-26 04:00:00 14.4 4 Norte 9 Este 0 -- -- 86
2020-08-26 03:00:00 14.7 4 Nordeste 9 Norte 0 -- -- 87
2020-08-26 02:00:00 15.4 6 Este 14 Este 0 -- -- 82
2020-08-26 01:00:00 16.1 9 Noroeste 15 Noroeste 0 -- -- 78
2020-08-26 00:00:00 16.7 10 Noroeste 13 Noroeste 0 -- -- 76